Kearneysville, West Virginia
Current Conditions -  °F | °C
As of 12:53 AM on Sunday 26 Oct 2014 (Local Time) from KMRB Reporting Station
Clear Clear  
Wind Chill: 66°   Ceiling: Unl
Heat Index: 66°   Visibility: 10mi
Dew Point: 46°   Wind: 16mph
Humidity: 48%   Direction: 290°WNW
Pressure: 29.7"   Gusts: 28mph
Location:  39.39°N, 77.89°W
Report Text: KMRB 260453Z AUTO 29014G24KT 10SM CLR 19/08 A2970 RMK AO2 SLP051 T01890078 402220044 TSNO
Loading
Personal Weather Stations






























Interactive Weather Map New forecast layout! Learn more

10-Day Weather Forecast

Advertisements
Track Severe Weather on mobile